Time;durP1;ratioP1;P1;durP2;ratioP2;P2;SDS_P1;SDS_P2;PMS_P1;PMS_P2;Temp;Humidity;BMP_temperature;BMP_pressure;BME280_temperature;BME280_humidity;BME280_pressure;Samples;Min_cycle;Max_cycle;Signal;HPM_P1;HPM_P2
2022/11/29 00:00:45;;;;;;;29.33;11.43;;;;;;;15.57;49.17;101511.09;5049112;28;20040;-69
2022/11/29 00:03:10;;;;;;;31.30;11.10;;;;;;;15.96;48.26;101517.38;5031872;28;20039;-68
2022/11/29 00:05:36;;;;;;;39.77;11.67;;;;;;;16.08;47.57;101512.69;5049180;28;20036;-68
2022/11/29 00:08:01;;;;;;;25.67;11.63;;;;;;;15.59;49.15;101513.69;5050674;28;20021;-68
2022/11/29 00:10:26;;;;;;;18.67;11.27;;;;;;;15.70;48.83;101510.84;5051910;28;20538;-68
2022/11/29 00:12:52;;;;;;;34.43;11.53;;;;;;;15.53;48.72;101513.84;5080824;28;20036;-67
2022/11/29 00:15:17;;;;;;;25.67;10.90;;;;;;;15.89;47.96;101514.00;5050176;28;20032;-68
2022/11/29 00:17:42;;;;;;;34.80;13.43;;;;;;;15.49;48.69;101517.41;5049658;28;20032;-68
2022/11/29 00:20:11;;;;;;;24.53;10.63;;;;;;;15.88;47.47;101517.53;5050314;28;20552;-68
2022/11/29 00:22:37;;;;;;;31.53;12.27;;;;;;;16.04;46.78;101518.06;5049258;28;20017;-68
2022/11/29 00:25:04;;;;;;;34.53;10.60;;;;;;;15.63;47.97;101523.28;5049931;28;20513;-68
2022/11/29 00:27:30;;;;;;;71.10;11.00;;;;;;;15.80;47.59;101533.53;5048946;28;20025;-68
2022/11/29 00:29:55;;;;;;;23.77;10.13;;;;;;;16.03;47.24;101534.78;5049971;28;20049;-68
2022/11/29 00:32:20;;;;;;;19.50;9.00;;;;;;;15.44;48.38;101535.94;5048772;28;20032;-68
2022/11/29 00:34:46;;;;;;;34.23;10.07;;;;;;;15.27;49.15;101529.22;5048683;28;20123;-67
2022/11/29 00:37:11;;;;;;;30.67;9.60;;;;;;;15.36;48.89;101528.19;5051503;28;20532;-69
2022/11/29 00:39:37;;;;;;;29.57;10.23;;;;;;;15.16;49.59;101525.06;5048714;28;20056;-67
2022/11/29 00:42:02;;;;;;;26.00;9.87;;;;;;;15.04;49.54;101527.03;5048957;28;20031;-68
2022/11/29 00:44:27;;;;;;;33.03;10.83;;;;;;;15.76;48.37;101530.03;5049911;28;20356;-69
2022/11/29 00:46:53;;;;;;;23.73;10.90;;;;;;;15.60;47.89;101531.25;5050529;28;20075;-68
2022/11/29 00:49:18;;;;;;;34.20;9.63;;;;;;;15.68;47.59;101529.31;5047913;28;20102;-70
2022/11/29 00:51:44;;;;;;;28.00;10.87;;;;;;;15.53;47.67;101529.63;5049423;28;20029;-68
2022/11/29 00:54:09;;;;;;;17.90;9.70;;;;;;;15.51;48.76;101528.78;5048370;28;20174;-68
2022/11/29 00:56:35;;;;;;;29.00;8.90;;;;;;;15.74;47.45;101529.22;5050902;28;20407;-68
2022/11/29 00:59:00;;;;;;;38.50;9.80;;;;;;;15.41;48.22;101531.63;5049496;28;20029;-68
2022/11/29 01:01:25;;;;;;;32.40;9.60;;;;;;;15.31;48.70;101535.31;5078974;28;20033;-68
2022/11/29 01:03:51;;;;;;;25.80;9.67;;;;;;;15.29;48.66;101526.59;5048506;28;20045;-68
2022/11/29 01:06:17;;;;;;;36.40;10.23;;;;;;;15.27;48.76;101533.63;5049022;28;20056;-68
2022/11/29 01:08:48;;;;;;;26.50;8.87;;;;;;;15.30;48.08;101528.28;5048824;28;20105;-68
2022/11/29 01:11:21;;;;;;;20.00;9.43;;;;;;;14.73;49.26;101538.06;5048916;28;20024;-68
2022/11/29 01:13:46;;;;;;;18.20;8.33;;;;;;;15.04;49.32;101532.28;5048511;28;20029;-68
2022/11/29 01:16:13;;;;;;;43.73;9.40;;;;;;;15.03;48.50;101535.81;5049912;28;20044;-68
2022/11/29 01:18:39;;;;;;;32.43;9.80;;;;;;;15.16;48.52;101535.59;5048837;28;20040;-68
2022/11/29 01:21:08;;;;;;;14.10;8.90;;;;;;;15.21;48.37;101547.78;5049699;28;20041;-68
2022/11/29 01:23:34;;;;;;;24.57;9.40;;;;;;;15.02;48.65;101543.75;5046978;28;20086;-68
2022/11/29 01:26:05;;;;;;;21.87;8.83;;;;;;;14.86;49.03;101543.13;5041661;28;20021;-68
2022/11/29 01:28:31;;;;;;;17.27;8.40;;;;;;;15.09;48.20;101534.84;5049150;28;20036;-68
2022/11/29 01:30:57;;;;;;;22.10;9.30;;;;;;;15.02;48.50;101534.06;5048352;28;20083;-68
2022/11/29 01:33:22;;;;;;;20.90;8.43;;;;;;;14.96;48.37;101539.44;5046719;28;20033;-68
2022/11/29 01:35:53;;;;;;;31.20;9.23;;;;;;;15.06;48.30;101548.91;5048972;28;20497;-68
2022/11/29 01:38:19;;;;;;;45.40;10.33;;;;;;;15.02;48.54;101544.59;5052786;28;20124;-68
2022/11/29 01:40:54;;;;;;;28.17;9.97;;;;;;;15.02;49.05;101549.88;5051667;28;20542;-68
2022/11/29 01:43:22;;;;;;;55.17;10.07;;;;;;;15.13;48.07;101551.47;5050427;28;20029;-68
2022/11/29 01:45:48;;;;;;;23.47;8.60;;;;;;;15.45;46.99;101548.22;5060571;28;20098;-68
2022/11/29 01:48:14;;;;;;;25.47;8.50;;;;;;;15.20;47.73;101559.19;5054101;28;20188;-68
2022/11/29 01:50:40;;;;;;;54.10;9.97;;;;;;;14.98;48.62;101553.44;5053339;28;20120;-68
2022/11/29 01:53:07;;;;;;;41.73;9.50;;;;;;;15.24;48.15;101560.03;5053337;28;20137;-68
2022/11/29 01:55:38;;;;;;;72.00;10.10;;;;;;;14.98;48.64;101569.25;5051358;28;20456;-68
2022/11/29 01:58:06;;;;;;;78.20;10.03;;;;;;;15.52;47.82;101560.38;5084933;28;20036;-68
2022/11/29 02:00:32;;;;;;;85.10;10.30;;;;;;;15.69;46.94;101567.97;5052852;28;20560;-69
2022/11/29 02:03:18;;;;;;;119.80;11.27;;;;;;;15.18;47.97;101575.91;5052658;28;20037;-68
2022/11/29 02:05:47;;;;;;;111.60;11.10;;;;;;;14.79;48.73;101578.34;5050788;28;20049;-68
2022/11/29 02:08:23;;;;;;;98.07;11.10;;;;;;;14.98;47.50;101578.91;5052854;28;20052;-69
2022/11/29 02:11:13;;;;;;;137.00;11.67;;;;;;;15.29;47.22;101581.88;5052861;28;20037;-68
2022/11/29 02:13:52;;;;;;;64.27;9.50;;;;;;;14.67;48.49;101590.78;5053815;28;20467;-68
2022/11/29 02:16:28;;;;;;;52.80;9.53;;;;;;;14.88;48.91;101588.72;5051280;28;20037;-68
2022/11/29 02:19:19;;;;;;;130.17;11.23;;;;;;;14.66;47.94;101589.03;5051885;28;20021;-68
2022/11/29 02:21:53;;;;;;;59.37;9.07;;;;;;;14.79;48.46;101588.84;5054058;28;20529;-68
2022/11/29 02:24:31;;;;;;;47.93;8.90;;;;;;;14.76;48.17;101588.00;5052622;28;20107;-68
2022/11/29 02:27:24;;;;;;;39.70;8.77;;;;;;;14.93;48.49;101587.75;5050065;28;20079;-68
2022/11/29 02:30:08;;;;;;;;;;;;;;;14.48;48.87;101578.75;5052920;28;20021;-69
2022/11/29 02:32:58;;;;;;;45.93;9.47;;;;;;;15.59;47.44;101576.94;5051648;28;20285;-68
2022/11/29 02:35:56;;;;;;;57.63;10.47;;;;;;;15.21;47.74;101597.81;5055103;28;20041;-68
2022/11/29 02:38:43;;;;;;;44.63;8.90;;;;;;;15.33;47.83;101591.47;5039105;28;20544;-68
2022/11/29 02:41:23;;;;;;;73.07;9.37;;;;;;;15.73;46.86;101589.84;5051727;28;20482;-68
2022/11/29 02:44:11;;;;;;;85.50;11.30;;;;;;;15.10;46.60;101610.31;5033696;28;20445;-68
2022/11/29 02:46:54;;;;;;;52.23;9.70;;;;;;;15.06;47.09;101612.09;5048853;28;20095;-68
2022/11/29 02:49:48;;;;;;;54.97;9.00;;;;;;;14.45;49.42;101616.47;5053309;28;20108;-68
2022/11/29 02:52:30;;;;;;;86.20;10.37;;;;;;;14.96;47.42;101618.44;5052046;28;20028;-68
2022/11/29 02:55:05;;;;;;;77.67;9.90;;;;;;;15.48;47.10;101621.91;5049728;28;20550;-68
2022/11/29 02:57:30;;;;;;;102.07;12.63;;;;;;;14.54;48.05;101624.25;5052059;28;20078;-68
2022/11/29 03:00:13;;;;;;;140.20;11.77;;;;;;;14.59;48.19;101630.31;5051216;28;20041;-68
2022/11/29 03:02:52;;;;;;;92.47;11.13;;;;;;;14.11;51.09;101621.31;5050678;28;20092;-68
2022/11/29 03:06:05;;;;;;;104.40;11.77;;;;;;;14.71;49.51;101628.44;5051218;28;20033;-68
2022/11/29 03:09:03;;;;;;;49.53;10.20;;;;;;;14.78;49.60;101631.84;5066002;28;20044;-68
2022/11/29 03:11:47;;;;;;;63.23;10.07;;;;;;;14.73;48.65;101630.16;5043690;28;20558;-68
2022/11/29 03:14:23;;;;;;;78.77;11.10;;;;;;;15.06;48.00;101624.41;5050515;28;20056;-68
2022/11/29 03:17:16;;;;;;;63.43;9.27;;;;;;;15.14;47.65;101642.69;5051098;28;20175;-68
2022/11/29 03:20:05;;;;;;;61.03;11.65;;;;;;;15.22;48.61;101638.19;5050973;28;20025;-68
2022/11/29 03:22:46;;;;;;;72.57;10.10;;;;;;;14.75;49.07;101645.91;5050559;28;20017;-68
2022/11/29 03:25:25;;;;;;;75.03;10.53;;;;;;;15.48;47.94;101643.00;5050773;28;20123;-68
2022/11/29 03:28:02;;;;;;;47.20;9.40;;;;;;;15.59;47.18;101642.81;5052608;28;20099;-68
2022/11/29 03:30:28;;;;;;;78.57;10.10;;;;;;;15.05;47.26;101649.84;5079706;28;20048;-68
2022/11/29 03:33:00;;;;;;;89.10;11.23;;;;;;;14.22;49.98;101648.38;5048049;28;20037;-69
2022/11/29 03:35:46;;;;;;;85.27;10.83;;;;;;;15.04;48.90;101645.50;5051272;28;20437;-68
2022/11/29 03:38:20;;;;;;;35.43;9.53;;;;;;;15.64;47.13;101653.28;5052394;28;20025;-68
2022/11/29 03:41:01;;;;;;;18.40;9.53;;;;;;;14.98;49.33;101648.22;5049597;28;20033;-68
2022/11/29 03:43:44;;;;;;;27.73;9.67;;;;;;;15.20;48.62;101648.75;5050226;28;20032;-68
2022/11/29 03:46:20;;;;;;;34.00;10.70;;;;;;;14.44;50.04;101648.97;5049266;28;20036;-68
2022/11/29 03:48:50;;;;;;;38.70;10.23;;;;;;;15.63;47.48;101648.91;5051309;28;20029;-68
2022/11/29 03:51:33;;;;;;;29.20;10.17;;;;;;;15.27;48.31;101649.50;5048356;28;20021;-68
2022/11/29 03:54:07;;;;;;;21.48;10.00;;;;;;;15.65;47.71;101653.25;5051605;28;20032;-68
2022/11/29 03:56:34;;;;;;;23.50;10.77;;;;;;;15.34;48.14;101661.66;5050516;28;20112;-68
2022/11/29 03:59:02;;;;;;;17.77;9.90;;;;;;;15.77;47.58;101663.56;5050080;28;20037;-68
2022/11/29 04:02:05;;;;;;;20.43;9.63;;;;;;;15.54;47.57;101668.38;5050038;28;20041;-68
2022/11/29 04:04:42;;;;;;;19.00;10.02;;;;;;;15.52;47.79;101670.16;5049983;28;20037;-68
2022/11/29 04:07:17;;;;;;;24.97;10.97;;;;;;;16.08;47.27;101670.91;5049561;28;20040;-68
2022/11/29 04:09:48;;;;;;;16.53;9.33;;;;;;;16.04;46.23;101669.22;5066734;28;20075;-68
2022/11/29 04:12:38;;;;;;;19.23;9.93;;;;;;;16.23;46.27;101668.88;5049887;28;20068;-68
2022/11/29 04:15:40;;;;;;;22.80;10.63;;;;;;;15.98;46.92;101674.63;5049467;28;20045;-68
2022/11/29 04:18:17;;;;;;;16.73;8.90;;;;;;;16.06;46.76;101672.72;5046728;28;20037;-68
2022/11/29 04:21:04;;;;;;;17.33;9.03;;;;;;;15.23;48.06;101677.66;5049537;28;20111;-68
2022/11/29 04:23:57;;;;;;;21.23;9.07;;;;;;;15.53;48.34;101677.19;5049179;28;20039;-68
2022/11/29 04:26:39;;;;;;;19.33;9.73;;;;;;;15.21;49.13;101682.09;5049577;28;20033;-68
2022/11/29 04:29:29;;;;;;;15.73;9.20;;;;;;;15.80;48.01;101682.88;5048026;28;20064;-68
2022/11/29 04:32:06;;;;;;;22.83;9.27;;;;;;;15.85;47.68;101683.66;5048156;28;20033;-68
2022/11/29 04:35:29;;;;;;;15.57;9.90;;;;;;;15.30;49.18;101675.78;5048720;28;20033;-68
2022/11/29 04:38:13;;;;;;;21.42;10.25;;;;;;;16.08;47.98;101681.44;5026845;28;20042;-68
2022/11/29 04:41:04;;;;;;;21.30;9.73;;;;;;;15.80;48.27;101685.50;5031724;28;20067;-69
2022/11/29 04:43:57;;;;;;;18.00;10.13;;;;;;;15.89;47.31;101685.34;5056868;28;20062;-68
2022/11/29 04:46:41;;;;;;;;;;;;;;;16.29;46.81;101687.19;5047998;28;20037;-68
2022/11/29 04:49:10;;;;;;;24.47;9.67;;;;;;;16.00;47.13;101693.91;5049595;28;19935;-68
2022/11/29 04:52:18;;;;;;;29.87;10.50;;;;;;;16.20;47.29;101697.97;5050003;28;20029;-68
2022/11/29 04:55:13;;;;;;;33.50;11.67;;;;;;;15.94;47.69;101704.59;5029076;28;20502;-68
2022/11/29 04:57:59;;;;;;;72.87;13.07;;;;;;;16.45;46.81;101704.44;5047510;28;20131;-68
2022/11/29 05:00:25;;;;;;;30.60;9.97;;;;;;;16.54;46.14;101705.16;5047519;28;20039;-68
2022/11/29 05:02:56;;;;;;;35.80;13.17;;;;;;;16.28;46.74;101699.53;5048903;28;20111;-68
2022/11/29 05:05:46;;;;;;;41.73;11.23;;;;;;;15.76;48.32;101711.91;5049301;28;20568;-69
2022/11/29 05:08:20;;;;;;;56.03;11.57;;;;;;;16.34;46.91;101702.97;5048230;28;20033;-68
2022/11/29 05:11:19;;;;;;;36.10;10.73;;;;;;;16.50;46.81;101709.66;5050478;28;20029;-68
2022/11/29 05:14:11;;;;;;;30.00;10.47;;;;;;;16.55;46.67;101704.28;5050157;28;20033;-68
2022/11/29 05:16:53;;;;;;;30.67;11.57;;;;;;;16.56;46.73;101709.50;5049076;28;20060;-68
2022/11/29 05:19:27;;;;;;;36.43;11.27;;;;;;;16.03;47.65;101714.97;5048523;28;20167;-69
2022/11/29 05:22:11;;;;;;;22.73;9.87;;;;;;;15.21;49.76;101728.63;5049830;28;20398;-68
2022/11/29 05:25:01;;;;;;;34.30;10.90;;;;;;;15.92;48.51;101722.19;5047698;28;20041;-68
2022/11/29 05:27:41;;;;;;;29.20;10.87;;;;;;;16.62;47.09;101729.63;5049307;28;20040;-68
2022/11/29 05:30:23;;;;;;;45.13;13.67;;;;;;;16.34;47.48;101735.47;5028897;28;20041;-68
2022/11/29 05:32:56;;;;;;;40.10;10.57;;;;;;;16.81;46.63;101729.25;5066655;28;20543;-68
2022/11/29 05:35:54;;;;;;;48.23;12.73;;;;;;;15.55;49.06;101730.72;5050220;28;20086;-68
2022/11/29 05:38:38;;;;;;;29.97;11.73;;;;;;;16.47;47.33;101740.50;5025651;28;20045;-68
2022/11/29 05:41:41;;;;;;;24.57;10.43;;;;;;;16.41;47.55;101742.34;5049098;28;20047;-68
2022/11/29 05:44:10;;;;;;;;;;;;;;;16.55;47.42;101743.84;5047557;28;20043;-68
2022/11/29 05:46:54;;;;;;;48.83;13.13;;;;;;;16.41;47.66;101745.00;5081041;28;19944;-68
2022/11/29 05:49:32;;;;;;;48.87;12.40;;;;;;;16.25;48.24;101752.34;5048443;28;20068;-68
2022/11/29 05:52:18;;;;;;;39.40;12.23;;;;;;;16.97;47.50;101757.09;5048019;28;20104;-68
2022/11/29 05:54:55;;;;;;;41.47;12.40;;;;;;;16.85;46.79;101762.59;5049707;28;20408;-69
2022/11/29 05:57:44;;;;;;;37.83;11.60;;;;;;;16.67;47.16;101770.00;5049741;28;20033;-69
2022/11/29 06:00:11;;;;;;;45.70;12.77;;;;;;;16.73;47.14;101777.81;5048461;28;20029;-68
2022/11/29 06:02:47;;;;;;;47.77;13.03;;;;;;;17.01;46.88;101769.31;5047790;28;20049;-68
2022/11/29 06:05:47;;;;;;;42.33;13.87;;;;;;;17.19;46.72;101767.19;5048765;28;20401;-68
2022/11/29 06:08:24;;;;;;;28.23;12.13;;;;;;;17.04;46.39;101773.66;5050078;28;20045;-68
2022/11/29 06:11:20;;;;;;;35.23;13.83;;;;;;;16.87;46.82;101776.63;5049672;28;20107;-68
2022/11/29 06:14:04;;;;;;;65.93;13.50;;;;;;;17.20;46.63;101790.91;5047952;28;20037;-68
2022/11/29 06:16:55;;;;;;;47.10;14.70;;;;;;;17.26;46.34;101785.47;5048338;28;20390;-68
2022/11/29 06:19:31;;;;;;;49.43;12.87;;;;;;;17.22;46.44;101793.50;5046265;28;20399;-68
2022/11/29 06:22:23;;;;;;;45.90;12.83;;;;;;;16.78;47.70;101797.03;5049268;28;20040;-68
2022/11/29 06:25:17;;;;;;;58.20;12.60;;;;;;;16.79;47.76;101796.13;5050452;28;20029;-68
2022/11/29 06:28:08;;;;;;;50.13;12.83;;;;;;;16.83;47.26;101796.06;5051638;28;20482;-68
2022/11/29 06:30:47;;;;;;;62.40;15.13;;;;;;;16.92;47.59;101809.13;5024725;28;20045;-68
2022/11/29 06:33:24;;;;;;;136.93;17.00;;;;;;;17.40;46.35;101805.44;5052268;28;20033;-68
2022/11/29 06:35:52;;;;;;;79.33;14.97;;;;;;;17.45;46.06;101807.06;5051217;28;20397;-68
2022/11/29 06:38:28;;;;;;;91.80;13.37;;;;;;;17.04;47.33;101811.50;5051020;28;20033;-68
2022/11/29 06:40:56;;;;;;;59.33;13.27;;;;;;;16.95;47.28;101811.69;5032475;28;20033;-68
2022/11/29 06:43:24;;;;;;;56.77;13.27;;;;;;;17.12;46.94;101809.56;5037000;28;20048;-68
2022/11/29 06:45:56;;;;;;;25.90;11.60;;;;;;;16.87;47.71;101810.94;5051444;28;20029;-68
2022/11/29 06:48:38;;;;;;;41.53;12.70;;;;;;;17.11;47.27;101818.38;5050715;28;20466;-68
2022/11/29 06:51:18;;;;;;;58.93;13.70;;;;;;;17.39;46.77;101822.19;5051621;28;20107;-68
2022/11/29 06:53:50;;;;;;;44.80;13.33;;;;;;;16.92;47.91;101827.59;5049946;28;20032;-68
2022/11/29 06:56:23;;;;;;;114.95;15.82;;;;;;;17.30;46.86;101823.28;5051730;28;20039;-67
2022/11/29 06:58:51;;;;;;;;;;;;;;;16.92;47.36;101833.75;5079660;28;20021;-68
2022/11/29 07:01:38;;;;;;;50.03;13.50;;;;;;;17.38;46.57;101842.47;5052287;28;19921;-68
2022/11/29 07:04:28;;;;;;;136.13;15.40;;;;;;;16.82;47.53;101847.16;5081733;28;20064;-68
2022/11/29 07:06:54;;;;;;;38.53;12.17;;;;;;;17.25;46.77;101843.63;5052159;28;20032;-68
2022/11/29 07:09:24;;;;;;;85.60;14.93;;;;;;;17.37;46.97;101851.28;5051863;28;20031;-68
2022/11/29 07:11:49;;;;;;;79.97;13.30;;;;;;;16.79;47.64;101858.66;5049955;28;20052;-67
2022/11/29 07:14:15;;;;;;;63.97;14.33;;;;;;;17.03;47.57;101859.94;5050671;28;20059;-68
2022/11/29 07:16:40;;;;;;;165.33;18.30;;;;;;;17.71;46.43;101855.81;5052872;28;20039;-68
2022/11/29 07:19:29;;;;;;;71.60;16.00;;;;;;;17.33;46.95;101860.19;5048603;28;20269;-67
2022/11/29 07:22:08;;;;;;;83.90;16.10;;;;;;;16.95;47.24;101870.69;5082008;28;20120;-68
2022/11/29 07:25:02;;;;;;;66.30;14.97;;;;;;;17.17;48.02;101869.34;5050140;28;20024;-68
2022/11/29 07:28:02;;;;;;;59.70;15.40;;;;;;;17.18;47.90;101876.38;5063981;28;20064;-67
2022/11/29 07:30:42;;;;;;;121.77;16.87;;;;;;;17.62;47.15;101877.16;5075683;28;20044;-67
2022/11/29 07:33:33;;;;;;;148.07;16.83;;;;;;;17.65;46.29;101877.09;5049523;28;20497;-68
2022/11/29 07:36:07;;;;;;;169.33;17.47;;;;;;;17.70;46.24;101883.16;5076406;28;20040;-68
2022/11/29 07:38:54;;;;;;;64.67;14.63;;;;;;;17.41;47.10;101894.38;5052824;28;20024;-67
2022/11/29 07:41:33;;;;;;;72.93;14.77;;;;;;;17.32;47.46;101900.72;5050546;28;20025;-67
2022/11/29 07:44:11;;;;;;;44.40;13.67;;;;;;;17.49;46.94;101903.00;5048740;28;20028;-68
2022/11/29 07:46:36;;;;;;;74.47;14.53;;;;;;;17.73;46.41;101906.84;5049602;28;20055;-68
2022/11/29 07:49:02;;;;;;;85.93;14.60;;;;;;;17.63;46.81;101897.41;5051730;28;20474;-67
2022/11/29 07:51:27;;;;;;;126.07;16.20;;;;;;;17.69;46.62;101907.84;5083810;28;20073;-68
2022/11/29 07:53:52;;;;;;;116.53;14.90;;;;;;;17.95;45.76;101906.41;5049783;28;20029;-68
2022/11/29 07:56:18;;;;;;;80.07;13.93;;;;;;;17.61;46.38;101917.72;5083685;28;20052;-68
2022/11/29 07:58:43;;;;;;;56.43;12.20;;;;;;;17.39;47.00;101912.91;5052371;28;20114;-67
2022/11/29 08:01:09;;;;;;;155.07;17.67;;;;;;;17.30;47.36;101908.69;5051869;28;20048;-68
2022/11/29 08:03:34;;;;;;;94.60;14.73;;;;;;;17.56;46.50;101911.69;5050119;28;20083;-68
2022/11/29 08:06:01;;;;;;;70.87;14.33;;;;;;;17.71;46.08;101902.50;5049627;28;20021;-68
2022/11/29 08:08:26;;;;;;;68.90;14.40;;;;;;;17.55;47.00;101900.22;5052097;28;20029;-68
2022/11/29 08:10:51;;;;;;;97.67;15.87;;;;;;;17.58;46.94;101907.22;5049856;28;20501;-68
2022/11/29 08:13:20;;;;;;;51.73;13.90;;;;;;;17.56;46.92;101906.41;5049181;28;20104;-67
2022/11/29 08:15:46;;;;;;;81.23;16.03;;;;;;;17.57;46.97;101908.09;5050581;28;20024;-67
2022/11/29 08:18:13;;;;;;;69.97;14.50;;;;;;;17.46;46.93;101919.81;5050980;28;20021;-67
2022/11/29 08:20:40;;;;;;;116.33;16.77;;;;;;;17.58;47.25;101923.06;5050455;28;20036;-68
2022/11/29 08:23:07;;;;;;;150.33;15.93;;;;;;;17.50;46.83;101925.00;5049942;28;20549;-67
2022/11/29 08:25:33;;;;;;;28.47;12.90;;;;;;;17.43;47.33;101925.16;5049838;28;20035;-67
2022/11/29 08:28:00;;;;;;;79.47;14.13;;;;;;;17.43;47.46;101935.75;5050100;28;20029;-68
2022/11/29 08:30:25;;;;;;;59.17;13.50;;;;;;;17.08;48.54;101934.66;5050397;28;20051;-67
2022/11/29 08:32:51;;;;;;;55.00;15.03;;;;;;;17.06;48.41;101936.50;5049783;28;20029;-67
2022/11/29 08:35:18;;;;;;;50.70;13.90;;;;;;;17.29;48.42;101932.50;5049495;28;20124;-68
2022/11/29 08:37:43;;;;;;;68.73;13.03;;;;;;;17.53;48.00;101936.41;5049880;28;20100;-68
2022/11/29 08:40:10;;;;;;;56.83;11.60;;;;;;;17.60;47.25;101938.00;5049505;28;20021;-67
2022/11/29 08:42:35;;;;;;;87.07;12.10;;;;;;;17.48;47.98;101942.69;5049461;28;20063;-68
2022/11/29 08:45:00;;;;;;;69.03;12.23;;;;;;;17.63;47.63;101940.56;5047144;28;20048;-67
2022/11/29 08:47:35;;;;;;;81.90;12.77;;;;;;;17.54;47.59;101947.84;5050265;28;20025;-68
2022/11/29 08:50:13;;;;;;;87.43;12.23;;;;;;;17.41;47.96;101942.81;5051412;28;20052;-68
2022/11/29 08:55:27;;;;;;;64.23;11.03;;;;;;;17.91;47.46;101939.97;5050762;28;20788;-68
2022/11/29 08:57:58;;;;;;;45.07;12.60;;;;;;;17.79;47.48;101953.44;5051513;28;20032;-67
2022/11/29 09:00:24;;;;;;;65.37;12.40;;;;;;;17.33;47.99;101955.31;5049117;28;20063;-68
2022/11/29 09:02:50;;;;;;;56.67;12.53;;;;;;;17.68;47.70;101956.34;5038456;28;20066;-68
2022/11/29 09:05:15;;;;;;;91.10;13.70;;;;;;;18.19;46.71;101951.69;5031051;28;20312;-68
2022/11/29 09:07:41;;;;;;;42.30;12.33;;;;;;;18.46;45.88;101964.25;5055893;28;20024;-68
2022/11/29 09:10:08;;;;;;;36.53;11.73;;;;;;;18.38;46.04;101960.94;5047343;28;20231;-68
2022/11/29 09:12:35;;;;;;;86.93;13.33;;;;;;;17.68;47.48;101972.22;5044601;28;20036;-68
2022/11/29 09:15:01;;;;;;;48.33;12.90;;;;;;;17.88;47.56;101973.53;5047188;28;20483;-68
2022/11/29 09:17:26;;;;;;;65.10;12.53;;;;;;;18.30;46.35;101973.47;5039923;28;20037;-68
2022/11/29 09:19:52;;;;;;;51.20;12.43;;;;;;;18.04;47.01;101974.97;5044565;28;20500;-67
2022/11/29 09:22:17;;;;;;;67.90;12.07;;;;;;;17.80;47.29;101979.88;5043812;28;20410;-67
2022/11/29 09:24:43;;;;;;;69.33;11.63;;;;;;;18.24;46.73;101973.63;5050256;28;20386;-67
2022/11/29 09:27:08;;;;;;;46.80;11.30;;;;;;;17.99;46.69;101982.13;5047781;28;20048;-67
2022/11/29 09:29:34;;;;;;;28.93;10.50;;;;;;;17.98;47.14;101985.66;5046818;28;20020;-68
2022/11/29 09:31:59;;;;;;;58.43;11.30;;;;;;;17.80;47.39;101987.81;5047994;28;20021;-67
2022/11/29 09:34:25;;;;;;;33.43;9.77;;;;;;;18.04;47.00;101993.47;5049109;28;20033;-66
2022/11/29 09:36:50;;;;;;;24.87;9.37;;;;;;;18.16;47.11;101994.94;5053406;28;20016;-67
2022/11/29 09:39:16;;;;;;;21.40;9.03;;;;;;;18.57;46.87;102001.03;5044242;28;20172;-68
2022/11/29 09:42:06;;;;;;;26.53;10.53;;;;;;;18.39;46.64;102005.00;5060032;28;20175;-68
2022/11/29 09:44:48;;;;;;;30.23;11.13;;;;;;;18.82;45.22;102006.59;5043980;28;20033;-68
2022/11/29 09:47:32;;;;;;;46.72;10.35;;;;;;;17.91;46.90;102008.75;5050177;28;20025;-67
2022/11/29 09:50:01;;;;;;;33.27;11.27;;;;;;;18.23;47.35;102000.97;5054321;28;20479;-68
2022/11/29 09:53:17;;;;;;;42.50;11.83;;;;;;;18.73;46.66;102001.50;5051350;28;20028;-67
2022/11/29 09:56:11;;;;;;;37.27;11.90;;;;;;;19.09;46.28;102001.47;5011262;28;20045;-68
2022/11/29 09:59:04;;;;;;;49.73;12.33;;;;;;;19.03;46.24;102001.66;5033317;28;20464;-68
2022/11/29 10:02:03;;;;;;;55.83;11.35;;;;;;;18.40;47.46;101998.81;5050908;28;20430;-67
2022/11/29 10:04:35;;;;;;;59.17;12.20;;;;;;;18.21;47.33;101997.50;5080132;28;20091;-68
2022/11/29 10:07:15;;;;;;;28.33;11.07;;;;;;;18.85;46.41;102000.34;5054496;28;20375;-68
2022/11/29 10:09:49;;;;;;;49.23;11.03;;;;;;;18.03;47.50;102004.97;5051362;28;20469;-68
2022/11/29 10:12:39;;;;;;;36.17;11.83;;;;;;;18.85;46.85;102004.75;5051665;28;20083;-67
2022/11/29 10:15:26;;;;;;;50.47;10.83;;;;;;;18.78;46.10;102007.56;5052781;28;20075;-68
2022/11/29 10:18:12;;;;;;;29.47;11.47;;;;;;;18.61;46.49;102012.41;5053333;28;20036;-67
2022/11/29 10:20:41;;;;;;;33.20;10.97;;;;;;;18.32;46.68;102016.66;5052598;28;20070;-68
2022/11/29 10:23:31;;;;;;;37.17;10.70;;;;;;;18.20;47.48;102023.09;5052735;28;20078;-67
2022/11/29 10:25:58;;;;;;;36.80;11.07;;;;;;;18.36;47.19;102023.59;5053397;28;20037;-68
2022/11/29 10:28:26;;;;;;;60.00;11.77;;;;;;;18.74;46.55;102023.56;5052468;28;20036;-67
2022/11/29 10:30:53;;;;;;;92.53;12.70;;;;;;;18.09;47.65;102020.72;5050377;28;20410;-67
2022/11/29 10:33:24;;;;;;;39.33;11.40;;;;;;;18.89;47.13;102017.03;5051994;28;20025;-67
2022/11/29 10:35:54;;;;;;;43.13;11.20;;;;;;;18.88;46.68;102025.91;5051474;28;20474;-67
2022/11/29 10:38:19;;;;;;;55.40;12.03;;;;;;;19.20;45.94;102021.53;5050462;28;20138;-68
2022/11/29 10:40:48;;;;;;;63.50;11.87;;;;;;;17.42;49.41;102013.28;5053705;28;20506;-68
2022/11/29 10:43:14;;;;;;;30.17;12.57;;;;;;;18.53;47.24;102014.38;5053828;28;20391;-68
2022/11/29 10:45:49;;;;;;;33.80;10.83;;;;;;;18.44;47.60;102011.06;5050560;28;20040;-68
2022/11/29 10:48:25;;;;;;;41.13;11.37;;;;;;;18.74;47.40;102008.56;5051186;28;20029;-68
2022/11/29 10:50:52;;;;;;;93.83;12.00;;;;;;;18.59;46.83;102009.81;5052258;28;20028;-68
2022/11/29 10:53:34;;;;;;;71.67;12.17;;;;;;;19.33;45.70;102007.03;5050481;28;20537;-67
2022/11/29 10:56:05;;;;;;;79.55;11.23;;;;;;;19.14;45.50;102012.81;5051969;28;20017;-68
2022/11/29 10:58:31;;;;;;;41.17;11.73;;;;;;;19.32;46.35;102014.09;5050730;28;20028;-68
2022/11/29 11:01:05;;;;;;;45.97;11.33;;;;;;;19.53;46.02;102022.34;5052986;28;20032;-67
2022/11/29 11:03:59;;;;;;;72.77;19.40;;;;;;;19.87;44.98;102023.19;5053470;28;20491;-67
2022/11/29 11:06:51;;;;;;;43.93;12.00;;;;;;;19.09;46.39;102025.31;5084210;28;20128;-67
2022/11/29 11:09:45;;;;;;;22.63;12.23;;;;;;;18.95;46.85;102031.00;5051863;28;20029;-67
2022/11/29 11:12:14;;;;;;;54.30;15.00;;;;;;;19.01;47.33;102027.31;5065310;28;20746;-67
2022/11/29 11:14:40;;;;;;;48.30;13.43;;;;;;;18.53;48.64;102031.13;5030800;28;20032;-67
2022/11/29 11:17:13;;;;;;;55.63;17.80;;;;;;;19.08;46.67;102026.25;5031761;28;20021;-67
2022/11/29 11:19:38;;;;;;;46.03;13.53;;;;;;;18.15;49.58;102025.00;5047159;28;20091;-67
2022/11/29 11:22:04;;;;;;;39.10;12.87;;;;;;;17.37;50.97;102030.13;5051214;28;20486;-68
2022/11/29 11:24:34;;;;;;;69.53;12.97;;;;;;;17.33;51.16;102028.44;5051616;28;20025;-68
2022/11/29 11:27:00;;;;;;;67.00;13.77;;;;;;;18.22;49.20;102026.56;5050716;28;20091;-68
2022/11/29 11:29:44;;;;;;;44.43;14.20;;;;;;;17.77;49.29;102032.81;5050600;28;20060;-68
2022/11/29 11:32:17;;;;;;;54.57;13.73;;;;;;;16.43;54.45;102033.47;5051272;28;20025;-67
2022/11/29 11:34:56;;;;;;;;;;;;;;;17.72;52.12;102037.34;5050945;28;20044;-67
2022/11/29 11:37:30;;;;;;;50.83;13.33;;;;;;;18.02;50.71;102040.25;5051868;28;19917;-68
2022/11/29 11:40:17;;;;;;;55.20;13.47;;;;;;;17.78;50.36;102034.56;5051038;28;20219;-68
2022/11/29 11:42:43;;;;;;;60.13;16.00;;;;;;;18.67;48.41;102036.09;5050377;28;20025;-68
2022/11/29 11:45:11;;;;;;;58.70;15.40;;;;;;;18.20;50.88;102038.09;5050690;28;20024;-67
2022/11/29 11:47:58;;;;;;;56.87;14.10;;;;;;;17.90;51.23;102043.13;5052359;28;20035;-68
2022/11/29 11:50:36;;;;;;;55.60;15.80;;;;;;;17.15;52.02;102040.22;5050585;28;20029;-67
2022/11/29 11:53:06;;;;;;;44.37;13.33;;;;;;;18.93;48.31;102045.19;5051570;28;20032;-68